createdAt,value
2024-01-15T00:01:02.225Z,99076.19
2024-01-15T00:03:28.823Z,99069.16
2024-01-15T00:05:55.528Z,99070.41
2024-01-15T00:08:22.016Z,99030.59
2024-01-15T00:10:48.665Z,99063.34
2024-01-15T00:13:15.261Z,99038.66
2024-01-15T00:15:41.906Z,99051.72
2024-01-15T00:18:08.663Z,99047.34
2024-01-15T00:20:35.806Z,99031.50
2024-01-15T00:23:02.426Z,99039.84
2024-01-15T00:25:29.031Z,99031.41
2024-01-15T00:27:55.707Z,99051.91
2024-01-15T00:30:22.239Z,99050.38
2024-01-15T00:32:48.789Z,99042.97
2024-01-15T00:35:15.429Z,99033.91
2024-01-15T00:37:42.023Z,99031.25
2024-01-15T00:40:08.996Z,99035.88
2024-01-15T00:42:35.527Z,99014.63
2024-01-15T00:45:02.027Z,99026.03
2024-01-15T00:47:28.569Z,99024.50
2024-01-15T00:49:55.050Z,99018.22
2024-01-15T00:52:21.567Z,99028.75
2024-01-15T00:54:48.084Z,99010.50
2024-01-15T00:57:14.667Z,99024.97
2024-01-15T00:59:41.151Z,99043.75
2024-01-15T01:02:07.699Z,99040.78
2024-01-15T01:04:34.259Z,99041.84
2024-01-15T01:07:00.849Z,99042.34
2024-01-15T01:09:27.332Z,99049.16
2024-01-15T01:11:56.658Z,99065.47
2024-01-15T01:14:23.491Z,99062.78
2024-01-15T01:16:49.928Z,99090.31
2024-01-15T01:19:16.746Z,99071.63
2024-01-15T01:21:43.424Z,99112.72
2024-01-15T01:24:10.125Z,99104.22
2024-01-15T01:26:36.631Z,99108.97
2024-01-15T01:29:05.873Z,99113.19
2024-01-15T01:31:35.615Z,99136.50
2024-01-15T01:34:02.180Z,99142.50
2024-01-15T01:36:32.897Z,99143.56
2024-01-15T01:38:59.559Z,99144.16
2024-01-15T01:41:26.177Z,99134.78
2024-01-15T01:43:52.758Z,99163.03
2024-01-15T01:46:19.498Z,99131.47
2024-01-15T01:48:48.735Z,99164.91
2024-01-15T01:51:16.267Z,99163.47
2024-01-15T01:53:42.962Z,99163.75
2024-01-15T01:56:10.617Z,99157.41
2024-01-15T01:58:37.528Z,99139.44
2024-01-15T02:01:04.575Z,99150.72
2024-01-15T02:03:32.121Z,99148.78
2024-01-15T02:06:00.712Z,99140.84
2024-01-15T02:08:27.802Z,99142.78
2024-01-15T02:10:54.344Z,99128.53
2024-01-15T02:13:21.742Z,99135.16
2024-01-15T02:15:48.249Z,99133.06
2024-01-15T02:18:14.881Z,99142.00
2024-01-15T02:20:41.587Z,99149.59
2024-01-15T02:23:11.552Z,99143.09
2024-01-15T02:25:45.724Z,99107.41
2024-01-15T02:28:17.390Z,99150.47
2024-01-15T02:30:45.093Z,99117.97
2024-01-15T02:33:12.868Z,99141.53
2024-01-15T02:35:39.846Z,99116.38
2024-01-15T02:38:07.230Z,99122.31
2024-01-15T02:40:33.830Z,99106.00
2024-01-15T02:43:00.588Z,99086.38
2024-01-15T02:45:30.402Z,99104.06
2024-01-15T02:47:56.951Z,99108.78
2024-01-15T02:50:23.637Z,99117.50
2024-01-15T02:52:50.245Z,99112.09
2024-01-15T02:55:16.879Z,99110.94
2024-01-15T02:57:43.665Z,99097.59
2024-01-15T03:00:10.968Z,99103.91
2024-01-15T03:02:38.518Z,99133.16
2024-01-15T03:05:05.367Z,99125.06
2024-01-15T03:07:31.896Z,99123.22
2024-01-15T03:09:58.472Z,99135.66
2024-01-15T03:12:25.248Z,99130.94
2024-01-15T03:14:51.998Z,99125.41
2024-01-15T03:17:18.461Z,99114.59
2024-01-15T03:19:45.254Z,99118.56
2024-01-15T03:22:11.845Z,99132.72
2024-01-15T03:24:41.084Z,99148.69
2024-01-15T03:27:10.590Z,99118.06
2024-01-15T03:29:40.985Z,99113.78
2024-01-15T03:32:07.542Z,99115.03
2024-01-15T03:34:34.191Z,99117.78
2024-01-15T03:37:00.807Z,99098.69
2024-01-15T03:39:27.440Z,99090.63
2024-01-15T03:41:54.118Z,99108.34
2024-01-15T03:44:20.617Z,99122.22
2024-01-15T03:46:47.160Z,99091.00
2024-01-15T03:49:13.634Z,99092.31
2024-01-15T03:51:40.265Z,99094.13
2024-01-15T03:54:06.948Z,99077.34
2024-01-15T03:56:33.387Z,99088.44
2024-01-15T03:58:59.893Z,99085.16
2024-01-15T04:01:29.234Z,99082.75
2024-01-15T04:03:55.880Z,99078.44
2024-01-15T04:06:22.499Z,99087.69
2024-01-15T04:08:49.060Z,99094.97
2024-01-15T04:11:15.521Z,99052.00
2024-01-15T04:13:42.892Z,99070.81
2024-01-15T04:16:09.407Z,99056.50
2024-01-15T04:18:35.918Z,99055.88
2024-01-15T04:21:05.960Z,99039.25
2024-01-15T04:23:33.725Z,99051.47
2024-01-15T04:26:00.360Z,99055.25
2024-01-15T04:28:26.862Z,99040.81
2024-01-15T04:30:53.368Z,99035.38
2024-01-15T04:33:20.057Z,99033.97
2024-01-15T04:35:46.588Z,99010.09
2024-01-15T04:38:13.114Z,99029.00
2024-01-15T04:40:39.500Z,99004.81
2024-01-15T04:43:05.960Z,98986.66
2024-01-15T04:45:32.369Z,98971.19
2024-01-15T04:47:58.996Z,98974.41
2024-01-15T04:50:25.563Z,98941.16
2024-01-15T04:52:52.092Z,98973.50
2024-01-15T04:55:18.582Z,98936.69
2024-01-15T04:57:45.329Z,98946.34
2024-01-15T05:00:12.815Z,98937.69
2024-01-15T05:02:39.300Z,98914.19
2024-01-15T05:05:05.894Z,98932.25
2024-01-15T05:07:32.286Z,98910.16
2024-01-15T05:09:58.884Z,98888.00
2024-01-15T05:12:25.411Z,98897.56
2024-01-15T05:14:52.065Z,98871.41
2024-01-15T05:17:18.585Z,98889.03
2024-01-15T05:19:45.210Z,98883.84
2024-01-15T05:22:11.771Z,98876.50
2024-01-15T05:24:38.572Z,98856.88
2024-01-15T05:27:05.315Z,98843.88
2024-01-15T05:29:31.931Z,98857.25
2024-01-15T05:32:01.921Z,98865.13
2024-01-15T05:34:29.186Z,98845.44
2024-01-15T05:37:04.072Z,98840.03
2024-01-15T05:39:30.673Z,98823.00
2024-01-15T05:41:59.462Z,98825.78
2024-01-15T05:44:26.031Z,98822.66
2024-01-15T05:46:52.695Z,98823.53
2024-01-15T05:49:19.530Z,98815.31
2024-01-15T05:51:48.575Z,98802.34
2024-01-15T05:54:15.222Z,98803.56
2024-01-15T05:56:41.623Z,98787.88
2024-01-15T05:59:08.100Z,98793.91
2024-01-15T06:01:34.631Z,98797.66
2024-01-15T06:04:01.499Z,98794.38
2024-01-15T06:06:28.038Z,98775.81
2024-01-15T06:08:54.534Z,98758.88
2024-01-15T06:11:21.229Z,98766.06
2024-01-15T06:13:47.767Z,98759.09
2024-01-15T06:16:16.949Z,98745.47
2024-01-15T06:18:43.603Z,98744.81
2024-01-15T06:21:10.125Z,98751.69
2024-01-15T06:23:36.826Z,98760.81
2024-01-15T06:26:03.267Z,98746.75
2024-01-15T06:28:33.015Z,98738.56
2024-01-15T06:30:59.896Z,98733.06
2024-01-15T06:33:26.513Z,98759.84
2024-01-15T06:35:53.210Z,98754.09
2024-01-15T06:38:19.628Z,98754.09
2024-01-15T06:40:46.215Z,98761.88
2024-01-15T06:43:14.139Z,98735.91
2024-01-15T06:45:43.830Z,98745.31
2024-01-15T06:48:10.482Z,98732.25
2024-01-15T06:50:36.963Z,98744.25
2024-01-15T06:53:03.513Z,98759.22
2024-01-15T06:55:29.992Z,98747.22
2024-01-15T06:57:56.427Z,98743.88
2024-01-15T07:00:26.726Z,98735.06
2024-01-15T07:02:56.023Z,98719.50
2024-01-15T07:05:22.696Z,98716.13
2024-01-15T07:07:49.248Z,98732.88
2024-01-15T07:10:15.953Z,98733.34
2024-01-15T07:12:45.938Z,98756.50
2024-01-15T07:15:15.867Z,98736.13
2024-01-15T07:17:45.491Z,98743.91
2024-01-15T07:20:12.588Z,98735.06
2024-01-15T07:22:39.662Z,98717.22
2024-01-15T07:25:08.567Z,98754.69
2024-01-15T07:27:35.223Z,98744.47
2024-01-15T07:30:06.433Z,98749.91
2024-01-15T07:32:35.515Z,98780.53
2024-01-15T07:35:02.073Z,98743.38
2024-01-15T07:37:34.723Z,98766.41
2024-01-15T07:40:01.428Z,98784.53
2024-01-15T07:42:28.110Z,98783.31
2024-01-15T07:44:57.599Z,98772.31
2024-01-15T07:47:24.545Z,98770.78
2024-01-15T07:49:51.313Z,98783.13
2024-01-15T07:52:27.218Z,98782.75
2024-01-15T07:54:53.824Z,98767.00
2024-01-15T07:57:25.554Z,98792.44
2024-01-15T07:59:52.122Z,98797.16
2024-01-15T08:02:19.581Z,98799.47
2024-01-15T08:04:46.478Z,98775.59
2024-01-15T08:07:14.195Z,98770.63
2024-01-15T08:09:40.893Z,98791.81
2024-01-15T08:12:07.741Z,98793.09
2024-01-15T08:14:34.343Z,98793.38
2024-01-15T08:17:03.329Z,98771.13
2024-01-15T08:19:33.320Z,98786.31
2024-01-15T08:22:00.024Z,98755.94
2024-01-15T08:24:26.612Z,98777.97
2024-01-15T08:26:53.063Z,98780.81
2024-01-15T08:29:19.610Z,98782.97
2024-01-15T08:31:51.868Z,98791.94
2024-01-15T08:34:18.676Z,98754.06
2024-01-15T08:36:48.101Z,98772.91
2024-01-15T08:39:14.850Z,98761.41
2024-01-15T08:41:41.493Z,98765.31
2024-01-15T08:44:08.008Z,98763.75
2024-01-15T08:46:34.450Z,98786.06
2024-01-15T08:49:04.947Z,98755.47
2024-01-15T08:51:41.197Z,98765.72
2024-01-15T08:54:07.820Z,98761.03
2024-01-15T08:56:40.386Z,98780.41
2024-01-15T08:59:08.100Z,98767.84
2024-01-15T09:01:34.781Z,98801.03
2024-01-15T09:04:01.324Z,98790.28
2024-01-15T09:06:30.312Z,98797.03
2024-01-15T09:08:56.834Z,98818.81
2024-01-15T09:11:23.526Z,98819.84
2024-01-15T09:13:51.382Z,98811.53
2024-01-15T09:16:18.238Z,98814.09
2024-01-15T09:18:44.913Z,98839.25
2024-01-15T09:21:11.660Z,98854.38
2024-01-15T09:23:39.188Z,98816.16
2024-01-15T09:26:05.772Z,98814.75
2024-01-15T09:28:32.339Z,98871.00
2024-01-15T09:30:59.044Z,98863.72
2024-01-15T09:33:25.776Z,98846.47
2024-01-15T09:35:52.350Z,98877.63
2024-01-15T09:38:18.778Z,98876.69
2024-01-15T09:40:47.009Z,98880.00
2024-01-15T09:43:14.067Z,98865.63
2024-01-15T09:45:41.070Z,98898.41
2024-01-15T09:48:09.343Z,98886.13
2024-01-15T09:50:35.883Z,98920.25
2024-01-15T09:53:02.857Z,98909.03
2024-01-15T09:55:33.176Z,98935.00
2024-01-15T09:58:01.525Z,98949.97
2024-01-15T10:00:29.240Z,98948.28
2024-01-15T10:02:55.940Z,98934.91
2024-01-15T10:05:22.703Z,98933.53
2024-01-15T10:07:50.459Z,98957.16
2024-01-15T10:10:17.164Z,98930.84
2024-01-15T10:12:43.928Z,98912.97
2024-01-15T10:15:11.450Z,98943.78
2024-01-15T10:17:39.320Z,98941.09
2024-01-15T10:20:13.078Z,98923.22
2024-01-15T10:22:43.497Z,98891.25
2024-01-15T10:25:14.281Z,98903.34
2024-01-15T10:27:42.263Z,98909.78
2024-01-15T10:30:10.633Z,98893.56
2024-01-15T10:32:37.626Z,98888.78
2024-01-15T10:35:05.020Z,98874.47
2024-01-15T10:37:34.499Z,98883.19
2024-01-15T10:40:03.403Z,98917.75
2024-01-15T10:42:30.187Z,98898.63
2024-01-15T10:44:59.442Z,98932.16
2024-01-15T10:47:32.076Z,98917.09
2024-01-15T10:49:59.118Z,98908.53
2024-01-15T10:52:25.948Z,98916.78
2024-01-15T10:54:55.907Z,98868.50
2024-01-15T10:57:26.937Z,98904.94
2024-01-15T10:59:55.564Z,98916.28
2024-01-15T11:02:23.919Z,98887.41
2024-01-15T11:04:51.194Z,98930.53
2024-01-15T11:07:18.610Z,98922.72
2024-01-15T11:09:46.556Z,98903.44
2024-01-15T11:12:14.842Z,98928.25
2024-01-15T11:14:43.401Z,98949.44
2024-01-15T11:17:10.344Z,98929.31
2024-01-15T11:19:48.495Z,98940.75
2024-01-15T11:22:33.123Z,98966.16
2024-01-15T11:25:16.118Z,98961.56
2024-01-15T11:27:44.724Z,98963.28
2024-01-15T11:30:13.204Z,98984.97
2024-01-15T11:32:40.354Z,98947.69
2024-01-15T11:35:07.296Z,98966.31
2024-01-15T11:37:51.974Z,98978.31
2024-01-15T11:40:41.219Z,98964.63
2024-01-15T11:43:07.856Z,98967.88
2024-01-15T11:45:34.564Z,98950.34
2024-01-15T11:48:16.090Z,98951.50
2024-01-15T11:50:44.521Z,98952.09
2024-01-15T11:53:43.566Z,98953.47
2024-01-15T11:56:16.636Z,98955.00
2024-01-15T11:58:46.596Z,98950.19
2024-01-15T12:01:13.574Z,98921.72
2024-01-15T12:03:40.804Z,98950.19
2024-01-15T12:06:08.272Z,98952.97
2024-01-15T12:08:34.853Z,98930.41
2024-01-15T12:11:03.583Z,98936.81
2024-01-15T12:13:31.413Z,98963.06
2024-01-15T12:15:58.048Z,98942.34
2024-01-15T12:18:24.785Z,98958.41
2024-01-15T12:20:51.438Z,98965.47
2024-01-15T12:23:18.638Z,98956.63
2024-01-15T12:25:45.903Z,98971.47
2024-01-15T12:28:12.582Z,98937.13
2024-01-15T12:30:40.216Z,98941.06
2024-01-15T12:33:08.846Z,98952.56
2024-01-15T12:35:37.549Z,98997.81
2024-01-15T12:38:04.590Z,98958.28
2024-01-15T12:40:32.900Z,98974.25
2024-01-15T12:43:04.412Z,99001.41
2024-01-15T12:45:33.640Z,99006.69
2024-01-15T12:48:00.533Z,99006.78
2024-01-15T12:50:27.753Z,99028.53
2024-01-15T12:52:56.875Z,99042.44
2024-01-15T12:55:23.515Z,99034.25
2024-01-15T12:57:50.942Z,99021.06
2024-01-15T13:00:17.730Z,99022.66
2024-01-15T13:02:44.958Z,99059.91
2024-01-15T13:05:15.654Z,99070.06
2024-01-15T13:07:43.266Z,99081.44
2024-01-15T13:10:10.176Z,99103.22
2024-01-15T13:12:37.717Z,99094.97
2024-01-15T13:15:04.357Z,99064.84
2024-01-15T13:17:31.264Z,99083.91
2024-01-15T13:19:58.468Z,99104.56
2024-01-15T13:22:25.950Z,99222.94
2024-01-15T13:24:52.589Z,99372.13
2024-01-15T13:27:19.335Z,99453.22
2024-01-15T13:29:45.837Z,99539.25
2024-01-15T13:32:18.682Z,99671.91
2024-01-15T13:34:45.347Z,99715.09
2024-01-15T13:37:12.116Z,99734.41
2024-01-15T13:39:38.604Z,99685.03
2024-01-15T13:42:05.387Z,99608.41
2024-01-15T13:44:32.037Z,99665.94
2024-01-15T13:46:58.519Z,99718.50
2024-01-15T13:49:25.063Z,99773.22
2024-01-15T13:51:51.807Z,99764.59
2024-01-15T13:54:18.461Z,99753.13
2024-01-15T13:56:47.944Z,99720.44
2024-01-15T13:59:14.417Z,99702.94
2024-01-15T14:01:40.933Z,99662.19
2024-01-15T14:04:07.535Z,99658.44
2024-01-15T14:06:36.239Z,99650.38
2024-01-15T14:09:02.784Z,99616.44
2024-01-15T14:11:32.829Z,99615.03
2024-01-15T14:13:59.275Z,99636.97
2024-01-15T14:16:26.359Z,99601.75
2024-01-15T14:18:55.177Z,99594.09
2024-01-15T14:21:21.787Z,99580.13
2024-01-15T14:23:48.309Z,99655.41
2024-01-15T14:26:15.459Z,99734.25
2024-01-15T14:28:43.085Z,99732.03
2024-01-15T14:31:09.582Z,99715.78
2024-01-15T14:33:40.443Z,99695.50
2024-01-15T14:36:07.596Z,99768.16
2024-01-15T14:38:34.049Z,99759.09
2024-01-15T14:41:00.580Z,99757.03
2024-01-15T14:43:27.108Z,99737.88
2024-01-15T14:45:53.592Z,99679.66
2024-01-15T14:48:20.314Z,99698.06
2024-01-15T14:50:46.890Z,99694.25
2024-01-15T14:53:13.450Z,99665.88
2024-01-15T14:55:39.967Z,99673.25
2024-01-15T14:58:06.425Z,99651.38
2024-01-15T15:00:33.076Z,99626.44
2024-01-15T15:02:59.683Z,99626.25
2024-01-15T15:05:29.116Z,99606.16
2024-01-15T15:07:55.621Z,99621.28
2024-01-15T15:10:22.153Z,99598.38
2024-01-15T15:12:48.656Z,99573.50
2024-01-15T15:15:19.321Z,99599.13
2024-01-15T15:17:48.054Z,99577.84
2024-01-15T15:20:14.898Z,99604.91
2024-01-15T15:22:41.744Z,99618.63
2024-01-15T15:25:08.513Z,99613.47
2024-01-15T15:27:36.233Z,99606.63
2024-01-15T15:30:02.690Z,99594.75
2024-01-15T15:32:32.396Z,99586.81
2024-01-15T15:34:59.020Z,99605.97
2024-01-15T15:37:25.599Z,99614.22
2024-01-15T15:39:52.162Z,99596.19
2024-01-15T15:42:18.714Z,99583.06
2024-01-15T15:44:45.223Z,99597.53
2024-01-15T15:47:11.738Z,99579.75
2024-01-15T15:49:38.437Z,99526.00
2024-01-15T15:52:07.748Z,99527.38
2024-01-15T15:54:37.016Z,99512.91
2024-01-15T15:57:03.753Z,99518.66
2024-01-15T16:00:06.139Z,99529.50
2024-01-15T16:02:35.539Z,99490.34
2024-01-15T16:05:02.263Z,99488.34
2024-01-15T16:07:34.512Z,99477.94
2024-01-15T16:10:04.708Z,99464.81
2024-01-15T16:12:31.583Z,99438.66
2024-01-15T16:15:00.649Z,99425.16
2024-01-15T16:23:16.004Z,99438.59
2024-01-15T16:23:30.059Z,99401.94
2024-01-15T16:24:00.205Z,99411.38
2024-01-15T16:25:56.735Z,99389.28
2024-01-15T16:28:23.946Z,99370.63
2024-01-15T16:30:52.699Z,99355.47
2024-01-15T16:33:24.859Z,99332.41
2024-01-15T16:35:51.441Z,99335.09
2024-01-15T16:38:18.156Z,99320.72
2024-01-15T16:40:44.603Z,99305.41
2024-01-15T16:43:11.088Z,99311.75
2024-01-15T16:45:37.540Z,99303.38
2024-01-15T16:48:04.471Z,99311.22
2024-01-15T16:50:31.050Z,99298.44
2024-01-15T16:52:57.612Z,99265.09
2024-01-15T16:55:24.600Z,99293.84
2024-01-15T16:57:51.063Z,99300.69
2024-01-15T17:00:17.614Z,99265.72
2024-01-15T17:02:47.202Z,99294.72
2024-01-15T17:05:13.922Z,99296.44
2024-01-15T17:07:42.802Z,99253.09
2024-01-15T17:10:09.497Z,99257.34
2024-01-15T17:12:36.115Z,99263.50
2024-01-15T17:15:02.652Z,99287.38
2024-01-15T17:17:29.278Z,99243.28
2024-01-15T17:19:55.762Z,99274.31
2024-01-15T17:22:22.422Z,99271.81
2024-01-15T17:24:48.992Z,99285.22
2024-01-15T17:27:15.471Z,99292.56
2024-01-15T17:29:42.023Z,99263.44
2024-01-15T17:32:08.469Z,99255.13
2024-01-15T17:34:35.121Z,99250.16
2024-01-15T17:37:01.534Z,99290.84
2024-01-15T17:39:28.102Z,99283.97
2024-01-15T17:41:54.540Z,99280.41
2024-01-15T17:44:23.085Z,99269.28
2024-01-15T17:46:50.174Z,99286.19
2024-01-15T17:49:19.639Z,99268.66
2024-01-15T17:51:47.536Z,99278.84
2024-01-15T17:54:17.138Z,99308.47
2024-01-15T17:56:43.712Z,99295.97
2024-01-15T17:59:10.356Z,99300.47
2024-01-15T18:04:17.406Z,99303.69
2024-01-15T18:06:43.927Z,99312.63
2024-01-15T18:09:10.367Z,99312.16
2024-01-15T18:11:37.894Z,99342.66
2024-01-15T18:14:04.733Z,99339.09
2024-01-15T18:16:31.156Z,99356.78
2024-01-15T18:18:57.720Z,99337.09
2024-01-15T18:21:24.456Z,99367.38
2024-01-15T18:23:50.927Z,99357.53
2024-01-15T18:26:17.983Z,99380.16
2024-01-15T18:28:44.666Z,99347.59
2024-01-15T18:31:12.865Z,99365.50
2024-01-15T18:33:41.862Z,99374.59
2024-01-15T18:36:11.256Z,99387.41
2024-01-15T18:38:37.907Z,99378.25
2024-01-15T18:41:04.843Z,99393.88
2024-01-15T18:43:32.416Z,99418.19
2024-01-15T18:45:59.352Z,99412.88
2024-01-15T18:48:25.867Z,99409.97
2024-01-15T18:50:52.490Z,99422.97
2024-01-15T18:53:19.087Z,99427.16
2024-01-15T18:55:45.821Z,99429.28
2024-01-15T18:58:15.525Z,99420.50
2024-01-15T19:00:42.027Z,99425.59
2024-01-15T19:03:08.696Z,99429.09
2024-01-15T19:05:35.141Z,99472.84
2024-01-15T19:08:02.700Z,99473.47
2024-01-15T19:10:29.256Z,99473.22
2024-01-15T19:12:55.770Z,99475.59
2024-01-15T19:15:22.274Z,99466.22
2024-01-15T19:17:48.779Z,99491.59
2024-01-15T19:20:15.603Z,99478.81
2024-01-15T19:22:42.369Z,99489.81
2024-01-15T19:25:10.406Z,99500.22
2024-01-15T19:27:39.565Z,99469.22
2024-01-15T19:30:06.511Z,99509.63
2024-01-15T19:32:33.268Z,99499.88
2024-01-15T19:35:01.066Z,99509.03
2024-01-15T19:37:28.380Z,99508.47
2024-01-15T19:39:55.058Z,99505.75
2024-01-15T19:42:21.568Z,99491.50
2024-01-15T19:44:48.014Z,99509.00
2024-01-15T19:47:17.355Z,99489.59
2024-01-15T19:49:43.756Z,99488.47
2024-01-15T19:52:10.171Z,99496.63
2024-01-15T19:54:39.496Z,99486.22
2024-01-15T19:57:06.258Z,99502.59
2024-01-15T19:59:32.804Z,99488.13
2024-01-15T20:01:59.496Z,99528.19
2024-01-15T20:04:26.058Z,99498.91
2024-01-15T20:06:55.506Z,99498.09
2024-01-15T20:09:21.907Z,99505.25
2024-01-15T20:11:48.470Z,99487.81
2024-01-15T20:14:15.101Z,99477.16
2024-01-15T20:16:41.662Z,99504.31
2024-01-15T20:19:08.383Z,99491.53
2024-01-15T20:21:34.887Z,99483.50
2024-01-15T20:24:04.192Z,99504.00
2024-01-15T20:26:31.149Z,99479.75
2024-01-15T20:28:58.887Z,99480.00
2024-01-15T20:31:27.628Z,99498.22
2024-01-15T20:33:54.211Z,99488.03
2024-01-15T20:36:20.886Z,99480.78
2024-01-15T20:39:10.682Z,99448.22
2024-01-15T20:41:37.305Z,99476.72
2024-01-15T20:44:04.003Z,99484.88
2024-01-15T20:46:30.617Z,99457.25
2024-01-15T20:48:57.160Z,99486.34
2024-01-15T20:51:23.619Z,99448.09
2024-01-15T20:53:50.238Z,99472.97
2024-01-15T20:56:16.864Z,99477.63
2024-01-15T20:58:43.535Z,99478.75
2024-01-15T21:01:11.096Z,99478.06
2024-01-15T21:03:37.717Z,99483.84
2024-01-15T21:06:06.959Z,99483.41
2024-01-15T21:08:33.584Z,99451.03
2024-01-15T21:11:01.933Z,99448.78
2024-01-15T21:13:34.905Z,99456.00
2024-01-15T21:16:01.457Z,99452.38
2024-01-15T21:18:29.177Z,99471.28
2024-01-15T21:20:55.878Z,99470.63
2024-01-15T21:23:28.399Z,99462.00
2024-01-15T21:25:58.702Z,99459.06
2024-01-15T21:28:25.270Z,99467.88
2024-01-15T21:30:51.962Z,99496.41
2024-01-15T21:33:18.550Z,99485.50
2024-01-15T21:35:45.253Z,99492.28
2024-01-15T21:38:11.700Z,99522.84
2024-01-15T21:40:40.727Z,99511.25
2024-01-15T21:45:39.012Z,99505.72
2024-01-15T21:46:16.518Z,99506.50
2024-01-15T21:48:47.950Z,99508.97
2024-01-15T21:51:16.581Z,99524.13
2024-01-15T21:53:55.031Z,99528.88
2024-01-15T21:56:25.558Z,99520.53
2024-01-15T21:59:13.198Z,99524.91
2024-01-15T22:01:46.648Z,99540.50
2024-01-15T22:04:15.856Z,99521.97
2024-01-15T22:06:44.965Z,99547.34
2024-01-15T22:09:23.542Z,99531.38
2024-01-15T22:11:51.505Z,99556.84
2024-01-15T22:14:26.682Z,99542.34
2024-01-15T22:17:12.992Z,99595.03
2024-01-15T22:19:44.931Z,99572.97
2024-01-15T22:22:11.563Z,99568.03
2024-01-15T22:24:43.649Z,99576.16
2024-01-15T22:27:10.694Z,99557.94
2024-01-15T22:29:55.145Z,99559.72
2024-01-15T22:32:21.790Z,99574.09
2024-01-15T22:34:48.473Z,99546.03
2024-01-15T22:37:15.059Z,99557.44
2024-01-15T22:39:41.743Z,99597.63
2024-01-15T22:42:08.201Z,99584.03
2024-01-15T22:44:35.082Z,99569.78
2024-01-15T22:47:01.638Z,99567.72
2024-01-15T22:49:28.189Z,99566.72
2024-01-15T22:51:54.612Z,99595.69
2024-01-15T22:54:21.054Z,99596.91
2024-01-15T22:56:47.543Z,99583.13
2024-01-15T22:59:16.715Z,99576.66
2024-01-15T23:01:43.093Z,99604.03
2024-01-15T23:04:09.474Z,99603.59
2024-01-15T23:06:36.117Z,99613.75
2024-01-15T23:09:02.509Z,99610.22
2024-01-15T23:11:29.083Z,99622.34
2024-01-15T23:13:55.804Z,99601.91
2024-01-15T23:16:22.256Z,99596.84
2024-01-15T23:18:51.405Z,99607.84
2024-01-15T23:21:18.443Z,99616.31
2024-01-15T23:23:44.953Z,99607.44
2024-01-15T23:26:13.702Z,99621.38
2024-01-15T23:28:40.852Z,99609.25
2024-01-15T23:31:07.333Z,99617.41
2024-01-15T23:33:33.972Z,99618.88
2024-01-15T23:36:00.550Z,99586.13
2024-01-15T23:38:27.174Z,99593.38
2024-01-15T23:40:54.322Z,99608.22
2024-01-15T23:43:20.816Z,99585.38
2024-01-15T23:45:51.185Z,99606.97
2024-01-15T23:48:24.965Z,99604.44
2024-01-15T23:50:51.558Z,99604.56
2024-01-15T23:53:18.160Z,99619.25
2024-01-15T23:55:44.574Z,99595.69
2024-01-15T23:58:13.906Z,99589.25
